createdAt,value
2022-12-20T00:04:32.887Z,24.27
2022-12-20T00:09:39.196Z,16.10
2022-12-20T00:14:42.374Z,25.30
2022-12-20T00:19:45.966Z,22.10
2022-12-20T00:24:49.133Z,23.00
2022-12-20T00:29:52.454Z,19.53
2022-12-20T00:34:55.505Z,20.83
2022-12-20T00:39:58.721Z,22.27
2022-12-20T00:45:03.177Z,24.00
2022-12-20T00:50:07.063Z,21.90
2022-12-20T00:55:10.303Z,25.80
2022-12-20T01:00:13.853Z,21.77
2022-12-20T01:05:29.293Z,18.77
2022-12-20T01:10:32.899Z,21.10
2022-12-20T01:15:35.946Z,24.70
2022-12-20T01:20:39.002Z,20.70
2022-12-20T01:25:42.209Z,22.90
2022-12-20T01:30:45.334Z,23.80
2022-12-20T01:36:27.112Z,22.17
2022-12-20T01:42:06.327Z,24.00
2022-12-20T01:47:20.368Z,25.83
2022-12-20T01:53:04.843Z,23.30
2022-12-20T01:58:26.474Z,23.60
2022-12-20T02:04:04.612Z,18.73
2022-12-20T02:09:34.577Z,23.30
2022-12-20T02:14:44.386Z,25.43
2022-12-20T02:19:59.680Z,25.43
2022-12-20T02:25:24.227Z,27.63
2022-12-20T02:30:34.207Z,21.17
2022-12-20T02:35:39.036Z,27.03
2022-12-20T02:40:45.165Z,27.00
2022-12-20T02:45:55.278Z,20.57
2022-12-20T02:51:10.363Z,27.33
2022-12-20T03:02:24.764Z,28.87
2022-12-20T03:07:35.204Z,22.17
2022-12-20T03:12:47.119Z,25.23
2022-12-20T03:18:00.811Z,26.00
2022-12-20T03:23:08.000Z,25.63
2022-12-20T03:28:19.959Z,25.60
2022-12-20T03:33:33.395Z,29.17
2022-12-20T03:39:03.721Z,25.73
2022-12-20T03:44:19.630Z,27.80
2022-12-20T03:49:28.118Z,28.30
2022-12-20T03:54:34.716Z,26.67
2022-12-20T03:59:46.367Z,25.97
2022-12-20T04:05:01.641Z,28.70
2022-12-20T04:10:08.291Z,31.03
2022-12-20T04:15:11.859Z,21.37
2022-12-20T04:20:20.828Z,29.03
2022-12-20T04:25:31.022Z,24.07
2022-12-20T04:30:34.316Z,26.73
2022-12-20T04:35:38.851Z,25.40
2022-12-20T04:40:43.927Z,28.33
2022-12-20T04:46:11.805Z,30.30
2022-12-20T04:51:34.741Z,25.27
2022-12-20T04:56:48.622Z,28.63
2022-12-20T05:02:08.949Z,30.00
2022-12-20T05:07:39.681Z,24.70
2022-12-20T05:12:45.289Z,27.10
2022-12-20T05:18:02.532Z,26.17
2022-12-20T05:24:17.830Z,27.57
2022-12-20T05:29:49.688Z,23.23
2022-12-20T05:34:53.482Z,27.03
2022-12-20T05:39:56.810Z,23.90
2022-12-20T05:45:03.831Z,26.17
2022-12-20T05:50:18.283Z,32.70
2022-12-20T05:55:48.484Z,27.80
2022-12-20T06:00:52.035Z,30.87
2022-12-20T06:06:15.433Z,26.20
2022-12-20T06:11:29.953Z,29.03
2022-12-20T06:16:47.822Z,29.63
2022-12-20T06:22:26.543Z,31.87
2022-12-20T06:27:50.219Z,33.33
2022-12-20T06:33:11.501Z,29.23
2022-12-20T06:38:31.745Z,34.50
2022-12-20T06:43:39.984Z,31.50
2022-12-20T06:49:02.015Z,29.10
2022-12-20T06:54:11.873Z,32.20
2022-12-20T06:59:23.167Z,26.30
2022-12-20T07:04:34.260Z,34.03
2022-12-20T07:09:44.276Z,32.37
2022-12-20T07:14:47.435Z,34.27
2022-12-20T07:19:51.196Z,32.47
2022-12-20T07:24:54.516Z,32.60
2022-12-20T07:29:57.572Z,34.77
2022-12-20T07:35:01.805Z,34.93
2022-12-20T07:40:05.937Z,39.97
2022-12-20T07:45:09.544Z,31.30
2022-12-20T07:50:12.650Z,38.80
2022-12-20T07:55:16.007Z,36.70
2022-12-20T08:00:19.538Z,35.90
2022-12-20T08:05:34.123Z,32.63
2022-12-20T08:10:47.392Z,35.47
2022-12-20T08:21:41.581Z,33.80
2022-12-20T08:27:02.715Z,35.27
2022-12-20T08:32:47.276Z,37.80
2022-12-20T08:37:53.050Z,35.80
2022-12-20T08:43:10.633Z,31.93
2022-12-20T08:48:33.253Z,32.73
2022-12-20T08:53:43.997Z,41.07
2022-12-20T08:58:59.553Z,33.97
2022-12-20T09:04:30.635Z,29.60
2022-12-20T09:09:34.641Z,34.60
2022-12-20T09:14:38.844Z,33.77
2022-12-20T09:19:41.863Z,32.73
2022-12-20T09:24:44.837Z,31.33
2022-12-20T09:29:47.871Z,35.87
2022-12-20T09:34:50.844Z,30.83
2022-12-20T09:39:53.819Z,30.47
2022-12-20T09:45:08.651Z,33.00
2022-12-20T09:50:17.917Z,32.47
2022-12-20T09:55:36.522Z,33.93
2022-12-20T10:00:53.975Z,33.40
2022-12-20T10:06:39.854Z,28.70
2022-12-20T10:12:05.854Z,33.63
2022-12-20T10:17:44.971Z,29.93
2022-12-20T10:23:09.355Z,33.57
2022-12-20T10:28:39.950Z,31.67
2022-12-20T10:33:45.248Z,28.07
2022-12-20T10:39:11.457Z,33.20
2022-12-20T10:44:24.991Z,28.37
2022-12-20T10:49:31.459Z,30.00
2022-12-20T10:54:39.852Z,31.13
2022-12-20T10:59:52.034Z,33.53
2022-12-20T11:05:29.637Z,31.77
2022-12-20T11:10:42.481Z,30.10
2022-12-20T11:22:06.426Z,28.80
2022-12-20T11:27:35.342Z,37.20
2022-12-20T11:33:24.313Z,28.33
2022-12-20T11:38:53.246Z,26.93
2022-12-20T11:44:53.953Z,27.37
2022-12-20T11:50:28.483Z,26.20
2022-12-20T11:55:37.677Z,24.80
2022-12-20T12:00:46.612Z,25.83
2022-12-20T12:06:30.059Z,23.90
2022-12-20T12:18:01.819Z,23.43
2022-12-20T12:23:53.262Z,24.00
2022-12-20T12:29:09.089Z,23.10
2022-12-20T12:34:30.008Z,23.80
2022-12-20T12:39:49.473Z,24.97
2022-12-20T12:44:59.924Z,22.17
2022-12-20T12:50:03.722Z,23.10
2022-12-20T12:55:35.997Z,23.40
2022-12-20T13:01:00.678Z,22.13
2022-12-20T13:06:45.557Z,23.17
2022-12-20T13:12:25.533Z,21.90
2022-12-20T13:17:59.038Z,20.43
2022-12-20T13:23:23.950Z,23.57
2022-12-20T13:28:42.306Z,18.63
2022-12-20T13:34:05.366Z,23.47
2022-12-20T13:39:25.588Z,20.03
2022-12-20T13:44:54.963Z,19.40
2022-12-20T13:50:02.307Z,20.87
2022-12-20T13:55:17.255Z,20.43
2022-12-20T14:00:28.707Z,25.40
2022-12-20T14:05:49.299Z,24.03
2022-12-20T14:11:24.205Z,23.77
2022-12-20T14:16:46.192Z,26.83
2022-12-20T14:22:10.193Z,24.37
2022-12-20T14:27:25.298Z,26.63
2022-12-20T14:32:50.348Z,24.93
2022-12-20T14:38:09.934Z,27.53
2022-12-20T14:43:34.936Z,30.10
2022-12-20T14:48:39.625Z,28.23
2022-12-20T14:53:59.628Z,32.87
2022-12-20T14:59:19.935Z,29.90
2022-12-20T15:04:49.109Z,26.33
2022-12-20T15:10:01.612Z,32.00
2022-12-20T15:15:27.753Z,32.17
2022-12-20T15:20:28.016Z,26.43
2022-12-20T15:25:42.712Z,28.10
2022-12-20T15:30:52.582Z,27.03
2022-12-20T15:36:23.998Z,30.37
2022-12-20T15:41:33.945Z,33.57
2022-12-20T15:46:37.167Z,31.00
2022-12-20T15:51:50.770Z,31.10
2022-12-20T15:57:22.326Z,32.90
2022-12-20T16:02:45.482Z,25.87
2022-12-20T16:07:50.577Z,32.67
2022-12-20T16:13:00.724Z,27.23
2022-12-20T16:18:12.656Z,31.57
2022-12-20T16:23:29.052Z,24.47
2022-12-20T16:28:52.936Z,29.73
2022-12-20T16:34:20.867Z,30.53
2022-12-20T16:39:26.894Z,28.37
2022-12-20T16:44:30.112Z,33.57
2022-12-20T16:49:33.073Z,33.53
2022-12-20T16:54:36.563Z,33.73
2022-12-20T16:59:39.607Z,36.23
2022-12-20T17:05:04.379Z,33.13
2022-12-20T17:10:17.968Z,36.83
2022-12-20T17:15:28.549Z,34.67
2022-12-20T17:20:36.678Z,39.03
2022-12-20T17:25:40.440Z,37.27
2022-12-20T17:30:43.501Z,36.47
2022-12-20T17:35:47.408Z,35.33
2022-12-20T17:41:30.480Z,36.13
2022-12-20T17:47:07.510Z,34.40
2022-12-20T17:52:27.328Z,31.83
2022-12-20T17:57:50.908Z,35.53
2022-12-20T18:03:02.898Z,33.83
2022-12-20T18:08:06.233Z,36.87
2022-12-20T18:13:22.813Z,39.27
2022-12-20T18:18:36.845Z,32.17
2022-12-20T18:23:59.027Z,40.00
2022-12-20T18:29:09.757Z,38.83
2022-12-20T18:34:20.276Z,33.27
2022-12-20T18:39:28.515Z,32.90
2022-12-20T18:44:36.031Z,33.63
2022-12-20T18:49:39.159Z,36.03
2022-12-20T18:54:42.195Z,33.50
2022-12-20T18:59:45.202Z,33.43
2022-12-20T19:04:51.143Z,37.20
2022-12-20T19:09:54.454Z,37.60
2022-12-20T19:14:57.605Z,37.07
2022-12-20T19:20:00.682Z,33.77
2022-12-20T19:25:03.785Z,34.40
2022-12-20T19:30:07.641Z,44.93
2022-12-20T19:35:45.209Z,36.80
2022-12-20T19:40:33.996Z,33.60
2022-12-20T19:45:40.236Z,32.93
2022-12-20T19:50:43.238Z,31.10
2022-12-20T19:56:06.802Z,36.07
2022-12-20T20:01:21.503Z,32.17
2022-12-20T20:06:47.353Z,33.03
2022-12-20T20:11:51.797Z,31.50
2022-12-20T20:17:02.948Z,37.33
2022-12-20T20:22:23.046Z,37.30
2022-12-20T20:27:39.479Z,34.53
2022-12-20T20:33:01.149Z,29.30
2022-12-20T20:38:35.051Z,30.90
2022-12-20T20:43:56.187Z,30.97
2022-12-20T20:49:07.573Z,26.53
2022-12-20T20:54:17.374Z,31.03
2022-12-20T20:59:26.180Z,30.03
2022-12-20T21:05:47.244Z,24.87
2022-12-20T21:10:19.239Z,33.23
2022-12-20T21:15:24.341Z,31.40
2022-12-20T21:20:28.196Z,28.70
2022-12-20T21:25:31.432Z,29.23
2022-12-20T21:30:35.091Z,31.10
2022-12-20T21:35:38.047Z,33.27
2022-12-20T21:40:41.172Z,31.00
2022-12-20T21:45:44.331Z,31.23
2022-12-20T21:51:24.009Z,32.17
2022-12-20T21:57:01.881Z,27.40
2022-12-20T22:02:14.689Z,30.50
2022-12-20T22:07:24.134Z,29.73
2022-12-20T22:12:47.593Z,31.33
2022-12-20T22:18:11.167Z,28.13
2022-12-20T22:23:39.200Z,37.47
2022-12-20T22:29:10.808Z,30.57
2022-12-20T22:34:19.288Z,27.57
2022-12-20T22:39:28.169Z,28.60
2022-12-20T22:44:31.507Z,28.00
2022-12-20T22:49:34.552Z,27.73
2022-12-20T22:54:37.624Z,26.80
2022-12-20T22:59:40.827Z,25.83
2022-12-20T23:04:53.877Z,27.13
2022-12-20T23:10:04.357Z,26.57
2022-12-20T23:15:31.938Z,29.10
2022-12-20T23:20:58.362Z,28.63
2022-12-20T23:26:30.336Z,27.43
2022-12-20T23:32:00.589Z,27.17
2022-12-20T23:37:22.351Z,24.33
2022-12-20T23:42:56.253Z,20.77
2022-12-20T23:48:15.774Z,24.77
2022-12-20T23:53:36.668Z,23.80
2022-12-20T23:58:49.025Z,22.27
